createdAt,value
2024-03-24T00:00:00.611Z,1787.1490
2024-03-24T00:00:11.660Z,1777.6300
2024-03-24T00:00:22.726Z,1780.0000
2024-03-24T00:00:33.756Z,1770.5570
2024-03-24T00:00:44.809Z,1789.5439
2024-03-24T00:00:55.858Z,1780.0000
2024-03-24T00:01:06.943Z,1784.7590
2024-03-24T00:01:17.971Z,1777.6300
2024-03-24T00:01:29.068Z,1780.0000
2024-03-24T00:01:40.081Z,1787.1490
2024-03-24T00:01:51.126Z,1807.7180
2024-03-24T00:02:02.167Z,1778.8140
2024-03-24T00:02:13.193Z,1768.2120
2024-03-24T00:02:24.239Z,1789.5439
2024-03-24T00:02:35.274Z,1772.9080
2024-03-24T00:02:46.317Z,1784.7590
2024-03-24T00:02:57.349Z,1782.3760
2024-03-24T00:03:08.373Z,1784.7590
2024-03-24T00:03:19.436Z,1790.7440
2024-03-24T00:03:30.479Z,1770.5570
2024-03-24T00:03:41.534Z,1781.1870
2024-03-24T00:03:52.589Z,1777.6300
2024-03-24T00:04:03.673Z,1782.3760
2024-03-24T00:04:14.699Z,1783.5670
2024-03-24T00:04:25.744Z,1782.3760
2024-03-24T00:04:39.009Z,1770.5570
2024-03-24T00:04:50.708Z,1790.7440
2024-03-24T00:05:01.771Z,1767.0420
2024-03-24T00:05:12.789Z,1787.1490
2024-03-24T00:05:23.846Z,1781.1870
2024-03-24T00:05:34.884Z,1784.7590
2024-03-24T00:05:45.931Z,1762.3760
2024-03-24T00:05:56.996Z,1787.1490
2024-03-24T00:06:08.010Z,1777.6300
2024-03-24T00:06:19.081Z,1787.1490
2024-03-24T00:06:30.113Z,1777.6300
2024-03-24T00:06:41.154Z,1780.0000
2024-03-24T00:06:52.208Z,1790.7440
2024-03-24T00:07:03.281Z,1783.5670
2024-03-24T00:07:14.289Z,1781.1870
2024-03-24T00:07:25.341Z,1787.1490
2024-03-24T00:07:36.389Z,1772.9080
2024-03-24T00:07:47.431Z,1785.9530
2024-03-24T00:07:58.474Z,1788.3459
2024-03-24T00:08:09.515Z,1782.3760
2024-03-24T00:08:20.554Z,1768.2120
2024-03-24T00:08:31.603Z,1783.5670
2024-03-24T00:08:42.681Z,1784.7590
2024-03-24T00:08:53.732Z,1785.9530
2024-03-24T00:09:04.785Z,1783.5670
2024-03-24T00:09:15.831Z,1789.5439
2024-03-24T00:09:26.892Z,1789.5439
2024-03-24T00:09:37.950Z,1790.7440
2024-03-24T00:09:48.995Z,1791.9460
2024-03-24T00:10:00.050Z,1790.7440
2024-03-24T00:10:11.095Z,1791.9460
2024-03-24T00:10:22.130Z,1793.1500
2024-03-24T00:10:33.178Z,1782.3760
2024-03-24T00:10:44.250Z,1778.8140
2024-03-24T00:10:55.284Z,1778.8140
2024-03-24T00:11:06.341Z,1793.1500
2024-03-24T00:11:17.364Z,1791.9460
2024-03-24T00:11:28.380Z,1794.3550
2024-03-24T00:11:39.434Z,1791.9460
2024-03-24T00:11:50.444Z,1787.1490
2024-03-24T00:12:01.509Z,1788.3459
2024-03-24T00:12:12.560Z,1797.9800
2024-03-24T00:12:23.580Z,1771.7321
2024-03-24T00:12:34.650Z,1780.0000
2024-03-24T00:12:45.719Z,1782.3760
2024-03-24T00:12:56.774Z,1808.9430
2024-03-24T00:13:07.847Z,1777.6300
2024-03-24T00:13:18.905Z,1788.3459
2024-03-24T00:13:29.934Z,1789.5439
2024-03-24T00:13:40.990Z,1782.3760
2024-03-24T00:13:52.083Z,1789.5439
2024-03-24T00:14:03.141Z,1789.5439
2024-03-24T00:14:14.176Z,1795.5620
2024-03-24T00:14:25.231Z,1772.9080
2024-03-24T00:14:36.273Z,1788.3459
2024-03-24T00:14:47.319Z,1791.9460
2024-03-24T00:14:58.369Z,1793.1500
2024-03-24T00:15:09.415Z,1794.3550
2024-03-24T00:15:20.464Z,1789.5439
2024-03-24T00:15:31.495Z,1796.7700
2024-03-24T00:15:42.565Z,1778.8140
2024-03-24T00:15:53.591Z,1797.9800
2024-03-24T00:16:04.669Z,1781.1870
2024-03-24T00:16:15.694Z,1791.9460
2024-03-24T00:16:26.749Z,1780.0000
2024-03-24T00:16:37.770Z,1793.1500
2024-03-24T00:16:48.814Z,1769.3840
2024-03-24T00:16:59.841Z,1796.7700
2024-03-24T00:17:10.884Z,1787.1490
2024-03-24T00:17:21.976Z,1787.1490
2024-03-24T00:17:33.013Z,1781.1870
2024-03-24T00:17:44.075Z,1784.7590
2024-03-24T00:17:55.127Z,1781.1870
2024-03-24T00:18:06.169Z,1789.5439
2024-03-24T00:18:17.186Z,1780.0000
2024-03-24T00:18:28.256Z,1787.1490
2024-03-24T00:18:39.321Z,1795.5620
2024-03-24T00:18:50.358Z,1794.3550
2024-03-24T00:19:01.422Z,1789.5439
2024-03-24T00:19:12.486Z,1784.7590
2024-03-24T00:19:23.523Z,1796.7700
2024-03-24T00:19:34.597Z,1787.1490
2024-03-24T00:19:45.649Z,1777.6300
2024-03-24T00:19:56.709Z,1796.7700
2024-03-24T00:20:07.733Z,1811.3979
2024-03-24T00:20:18.801Z,1799.1910
2024-03-24T00:20:29.836Z,1788.3459
2024-03-24T00:20:40.871Z,1783.5670
2024-03-24T00:20:51.928Z,1794.3550
2024-03-24T00:21:02.948Z,1774.0861
2024-03-24T00:21:14.001Z,1783.5670
2024-03-24T00:21:25.052Z,1781.1870
2024-03-24T00:21:36.112Z,1796.7700
2024-03-24T00:21:47.138Z,1794.3550
2024-03-24T00:21:58.186Z,1781.1870
2024-03-24T00:22:09.256Z,1788.3459
2024-03-24T00:22:20.284Z,1790.7440
2024-03-24T00:22:31.527Z,1787.1490
2024-03-24T00:22:42.572Z,1796.7700
2024-03-24T00:22:53.639Z,1806.4950
2024-03-24T00:23:04.694Z,1799.1910
2024-03-24T00:23:15.753Z,1789.5439
2024-03-24T00:23:26.823Z,1794.3550
2024-03-24T00:23:37.885Z,1797.9800
2024-03-24T00:23:48.933Z,1791.9460
2024-03-24T00:23:59.948Z,1796.7700
2024-03-24T00:24:11.025Z,1789.5439
2024-03-24T00:24:22.049Z,1791.9460
2024-03-24T00:24:33.093Z,1804.0540
2024-03-24T00:24:44.131Z,1793.1500
2024-03-24T00:24:55.166Z,1799.1910
2024-03-24T00:25:06.226Z,1796.7700
2024-03-24T00:25:17.275Z,1796.7700
2024-03-24T00:25:28.315Z,1795.5620
2024-03-24T00:25:39.371Z,1795.5620
2024-03-24T00:25:50.427Z,1801.6190
2024-03-24T00:26:01.478Z,1777.6300
2024-03-24T00:26:12.505Z,1797.9800
2024-03-24T00:26:23.524Z,1810.1689
2024-03-24T00:26:34.573Z,1794.3550
2024-03-24T00:26:45.613Z,1812.6270
2024-03-24T00:26:56.679Z,1790.7440
2024-03-24T00:27:07.740Z,1800.4050
2024-03-24T00:27:18.816Z,1782.3760
2024-03-24T00:27:29.835Z,1797.9800
2024-03-24T00:27:40.892Z,1805.2740
2024-03-24T00:27:51.951Z,1795.5620
2024-03-24T00:28:03.018Z,1799.1910
2024-03-24T00:28:14.067Z,1804.0540
2024-03-24T00:28:25.096Z,1784.7590
2024-03-24T00:28:36.124Z,1806.4950
2024-03-24T00:28:47.173Z,1791.9460
2024-03-24T00:28:58.225Z,1805.2740
2024-03-24T00:29:09.303Z,1802.8361
2024-03-24T00:29:20.338Z,1801.6190
2024-03-24T00:29:31.353Z,1828.7670
2024-03-24T00:29:42.418Z,1810.1689
2024-03-24T00:29:53.444Z,1805.2740
2024-03-24T00:30:04.474Z,1804.0540
2024-03-24T00:30:15.524Z,1791.9460
2024-03-24T00:30:26.559Z,1804.0540
2024-03-24T00:30:37.614Z,1802.8361
2024-03-24T00:30:48.653Z,1802.8361
2024-03-24T00:30:59.700Z,1800.4050
2024-03-24T00:31:10.755Z,1812.6270
2024-03-24T00:31:21.816Z,1801.6190
2024-03-24T00:31:32.851Z,1796.7700
2024-03-24T00:31:43.892Z,1802.8361
2024-03-24T00:31:54.961Z,1804.0540
2024-03-24T00:32:06.025Z,1802.8361
2024-03-24T00:32:17.082Z,1813.8590
2024-03-24T00:32:28.133Z,1799.1910
2024-03-24T00:32:39.150Z,1804.0540
2024-03-24T00:32:50.166Z,1808.9430
2024-03-24T00:33:01.227Z,1804.0540
2024-03-24T00:33:12.271Z,1797.9800
2024-03-24T00:33:23.313Z,1799.1910
2024-03-24T00:33:34.368Z,1808.9430
2024-03-24T00:33:45.417Z,1800.4050
2024-03-24T00:33:56.465Z,1799.1910
2024-03-24T00:34:07.537Z,1805.2740
2024-03-24T00:34:18.603Z,1801.6190
2024-03-24T00:34:29.670Z,1793.1500
2024-03-24T00:34:40.698Z,1806.4950
2024-03-24T00:34:51.703Z,1804.0540
2024-03-24T00:35:02.765Z,1795.5620
2024-03-24T00:35:13.802Z,1801.6190
2024-03-24T00:35:24.860Z,1791.9460
2024-03-24T00:35:35.911Z,1805.2740
2024-03-24T00:35:47.009Z,1794.3550
2024-03-24T00:35:58.029Z,1804.0540
2024-03-24T00:36:09.086Z,1804.0540
2024-03-24T00:36:20.132Z,1797.9800
2024-03-24T00:36:31.182Z,1804.0540
2024-03-24T00:36:42.214Z,1804.0540
2024-03-24T00:36:53.269Z,1806.4950
2024-03-24T00:37:04.295Z,1808.9430
2024-03-24T00:37:15.335Z,1807.7180
2024-03-24T00:37:26.392Z,1796.7700
2024-03-24T00:37:37.404Z,1805.2740
2024-03-24T00:37:48.446Z,1796.7700
2024-03-24T00:37:59.525Z,1807.7180
2024-03-24T00:38:10.564Z,1804.0540
2024-03-24T00:38:21.600Z,1801.6190
2024-03-24T00:38:32.633Z,1793.1500
2024-03-24T00:38:43.684Z,1799.1910
2024-03-24T00:38:54.742Z,1807.7180
2024-03-24T00:39:05.794Z,1810.1689
2024-03-24T00:39:16.852Z,1807.7180
2024-03-24T00:39:27.965Z,1791.9460
2024-03-24T00:39:40.464Z,1805.2740
2024-03-24T00:39:52.873Z,1791.9460
2024-03-24T00:40:03.886Z,1791.9460
2024-03-24T00:40:14.953Z,1815.0920
2024-03-24T00:40:25.982Z,1806.4950
2024-03-24T00:40:37.002Z,1801.6190
2024-03-24T00:40:48.042Z,1807.7180
2024-03-24T00:40:59.102Z,1802.8361
2024-03-24T00:41:10.149Z,1806.4950
2024-03-24T00:41:21.215Z,1799.1910
2024-03-24T00:41:32.265Z,1801.6190
2024-03-24T00:41:43.274Z,1808.9430
2024-03-24T00:41:54.313Z,1808.9430
2024-03-24T00:42:05.359Z,1807.7180
2024-03-24T00:42:16.411Z,1804.0540
2024-03-24T00:42:27.446Z,1808.9430
2024-03-24T00:42:38.497Z,1807.7180
2024-03-24T00:42:49.557Z,1801.6190
2024-03-24T00:43:00.581Z,1811.3979
2024-03-24T00:43:11.614Z,1800.4050
2024-03-24T00:43:22.654Z,1802.8361
2024-03-24T00:43:33.713Z,1813.8590
2024-03-24T00:43:44.762Z,1804.0540
2024-03-24T00:43:55.829Z,1811.3979
2024-03-24T00:44:06.857Z,1791.9460
2024-03-24T00:44:17.870Z,1820.0410
2024-03-24T00:44:28.922Z,1807.7180
2024-03-24T00:44:40.016Z,1810.1689
2024-03-24T00:44:51.071Z,1806.4950
2024-03-24T00:45:02.121Z,1800.4050
2024-03-24T00:45:13.165Z,1796.7700
2024-03-24T00:45:24.189Z,1800.4050
2024-03-24T00:45:35.244Z,1807.7180
2024-03-24T00:45:46.295Z,1810.1689
2024-03-24T00:45:57.353Z,1810.1689
2024-03-24T00:46:08.407Z,1806.4950
2024-03-24T00:46:19.443Z,1813.8590
2024-03-24T00:46:30.459Z,1811.3979
2024-03-24T00:46:41.493Z,1811.3979
2024-03-24T00:46:52.561Z,1810.1689
2024-03-24T00:47:03.632Z,1802.8361
2024-03-24T00:47:14.671Z,1810.1689
2024-03-24T00:47:25.700Z,1801.6190
2024-03-24T00:47:36.714Z,1801.6190
2024-03-24T00:47:47.744Z,1806.4950
2024-03-24T00:47:58.771Z,1806.4950
2024-03-24T00:48:09.820Z,1802.8361
2024-03-24T00:48:20.872Z,1801.6190
2024-03-24T00:48:31.923Z,1811.3979
2024-03-24T00:48:42.973Z,1794.3550
2024-03-24T00:48:54.003Z,1799.1910
2024-03-24T00:49:05.066Z,1806.4950
2024-03-24T00:49:16.067Z,1810.1689
2024-03-24T00:49:27.084Z,1817.5630
2024-03-24T00:49:38.173Z,1823.7700
2024-03-24T00:49:49.238Z,1802.8361
2024-03-24T00:50:00.267Z,1815.0920
2024-03-24T00:50:11.310Z,1796.7700
2024-03-24T00:50:22.358Z,1812.6270
2024-03-24T00:50:33.400Z,1806.4950
2024-03-24T00:50:44.468Z,1806.4950
2024-03-24T00:50:55.483Z,1813.8590
2024-03-24T00:51:06.551Z,1815.0920
2024-03-24T00:51:17.598Z,1816.3270
2024-03-24T00:51:28.652Z,1811.3979
2024-03-24T00:51:39.723Z,1804.0540
2024-03-24T00:51:50.763Z,1818.8010
2024-03-24T00:52:01.835Z,1816.3270
2024-03-24T00:52:12.885Z,1801.6190
2024-03-24T00:52:23.925Z,1816.3270
2024-03-24T00:52:35.004Z,1807.7180
2024-03-24T00:52:46.030Z,1810.1689
2024-03-24T00:52:57.077Z,1817.5630
2024-03-24T00:53:08.140Z,1811.3979
2024-03-24T00:53:19.155Z,1808.9430
2024-03-24T00:53:30.202Z,1810.1689
2024-03-24T00:53:41.266Z,1811.3979
2024-03-24T00:53:52.303Z,1836.3140
2024-03-24T00:54:03.319Z,1797.9800
2024-03-24T00:54:14.371Z,1808.9430
2024-03-24T00:54:25.425Z,1811.3979
2024-03-24T00:54:36.469Z,1817.5630
2024-03-24T00:54:47.543Z,1810.1689
2024-03-24T00:54:58.583Z,1804.0540
2024-03-24T00:55:09.683Z,1806.4950
2024-03-24T00:55:20.754Z,1808.9430
2024-03-24T00:55:31.804Z,1813.8590
2024-03-24T00:55:42.817Z,1806.4950
2024-03-24T00:55:53.894Z,1805.2740
2024-03-24T00:56:04.955Z,1806.4950
2024-03-24T00:56:15.994Z,1816.3270
2024-03-24T00:56:26.998Z,1811.3979
2024-03-24T00:56:38.035Z,1806.4950
2024-03-24T00:56:49.081Z,1817.5630
2024-03-24T00:57:00.105Z,1816.3270
2024-03-24T00:57:11.148Z,1813.8590
2024-03-24T00:57:22.204Z,1799.1910
2024-03-24T00:57:33.252Z,1794.3550
2024-03-24T00:57:44.303Z,1813.8590
2024-03-24T00:57:55.364Z,1820.0410
2024-03-24T00:58:06.453Z,1813.8590
2024-03-24T00:58:17.467Z,1804.0540
2024-03-24T00:58:28.508Z,1811.3979
2024-03-24T00:58:39.555Z,1811.3979
2024-03-24T00:58:50.611Z,1811.3979
2024-03-24T00:59:01.677Z,1807.7180
2024-03-24T00:59:12.734Z,1804.0540
2024-03-24T00:59:23.763Z,1797.9800
2024-03-24T00:59:34.810Z,1816.3270
2024-03-24T00:59:45.829Z,1816.3270
2024-03-24T00:59:56.922Z,1805.2740
2024-03-24T01:00:07.974Z,1816.3270
2024-03-24T01:00:19.008Z,1821.2820
2024-03-24T01:00:30.058Z,1806.4950
2024-03-24T01:00:41.071Z,1816.3270
2024-03-24T01:00:52.104Z,1797.9800
2024-03-24T01:01:03.133Z,1812.6270
2024-03-24T01:01:14.187Z,1821.2820
2024-03-24T01:01:25.257Z,1806.4950
2024-03-24T01:01:36.289Z,1820.0410
2024-03-24T01:01:47.340Z,1818.8010
2024-03-24T01:01:58.378Z,1816.3270
2024-03-24T01:02:09.425Z,1800.4050
2024-03-24T01:02:20.484Z,1815.0920
2024-03-24T01:02:31.502Z,1821.2820
2024-03-24T01:02:42.540Z,1811.3979
2024-03-24T01:02:53.560Z,1810.1689
2024-03-24T01:03:04.592Z,1821.2820
2024-03-24T01:03:15.645Z,1817.5630
2024-03-24T01:03:26.647Z,1811.3979
2024-03-24T01:03:37.698Z,1823.7700
2024-03-24T01:03:48.713Z,1815.0920
2024-03-24T01:03:59.767Z,1818.8010
2024-03-24T01:04:10.855Z,1826.2650
2024-03-24T01:04:21.897Z,1817.5630
2024-03-24T01:04:32.944Z,1817.5630
2024-03-24T01:04:44.002Z,1823.7700
2024-03-24T01:04:55.052Z,1807.7180
2024-03-24T01:05:06.133Z,1816.3270
2024-03-24T01:05:17.172Z,1810.1689
2024-03-24T01:05:28.230Z,1806.4950
2024-03-24T01:05:39.325Z,1808.9430
2024-03-24T01:05:50.394Z,1813.8590
2024-03-24T01:06:01.435Z,1813.8590
2024-03-24T01:06:12.474Z,1818.8010
2024-03-24T01:06:23.543Z,1818.8010
2024-03-24T01:06:34.584Z,1820.0410
2024-03-24T01:06:45.644Z,1813.8590
2024-03-24T01:06:56.671Z,1816.3270
2024-03-24T01:07:07.718Z,1816.3270
2024-03-24T01:07:18.763Z,1813.8590
2024-03-24T01:07:29.811Z,1812.6270
2024-03-24T01:07:40.868Z,1818.8010
2024-03-24T01:07:51.896Z,1818.8010
2024-03-24T01:08:02.971Z,1818.8010
2024-03-24T01:08:13.993Z,1821.2820
2024-03-24T01:08:25.064Z,1801.6190
2024-03-24T01:08:36.144Z,1818.8010
2024-03-24T01:08:47.194Z,1817.5630
2024-03-24T01:08:58.269Z,1821.2820
2024-03-24T01:09:09.294Z,1817.5630
2024-03-24T01:09:20.352Z,1807.7180
2024-03-24T01:09:31.396Z,1836.3140
2024-03-24T01:09:42.454Z,1812.6270
2024-03-24T01:09:53.509Z,1821.2820
2024-03-24T01:10:04.558Z,1822.5260
2024-03-24T01:10:15.634Z,1813.8590
2024-03-24T01:10:26.692Z,1810.1689
2024-03-24T01:10:37.739Z,1806.4950
2024-03-24T01:10:48.789Z,1808.9430
2024-03-24T01:10:59.829Z,1818.8010
2024-03-24T01:11:10.853Z,1818.8010
2024-03-24T01:11:21.882Z,1811.3979
2024-03-24T01:11:32.910Z,1804.0540
2024-03-24T01:11:43.953Z,1822.5260
2024-03-24T01:11:54.993Z,1820.0410
2024-03-24T01:12:06.035Z,1816.3270
2024-03-24T01:12:17.087Z,1808.9430
2024-03-24T01:12:28.142Z,1804.0540
2024-03-24T01:12:39.162Z,1818.8010
2024-03-24T01:12:50.213Z,1816.3270
2024-03-24T01:13:01.264Z,1802.8361
2024-03-24T01:13:12.339Z,1816.3270
2024-03-24T01:13:23.365Z,1810.1689
2024-03-24T01:13:34.413Z,1833.7910
2024-03-24T01:13:45.453Z,1794.3550
2024-03-24T01:13:56.499Z,1812.6270
2024-03-24T01:14:07.533Z,1818.8010
2024-03-24T01:14:18.574Z,1794.3550
2024-03-24T01:14:29.698Z,1811.3979
2024-03-24T01:14:40.723Z,1812.6270
2024-03-24T01:14:51.762Z,1815.0920
2024-03-24T01:15:02.771Z,1812.6270
2024-03-24T01:15:13.808Z,1805.2740
2024-03-24T01:15:24.888Z,1810.1689
2024-03-24T01:15:35.923Z,1812.6270
2024-03-24T01:15:46.998Z,1815.0920
2024-03-24T01:15:58.034Z,1810.1689
2024-03-24T01:16:09.126Z,1810.1689
2024-03-24T01:16:20.161Z,1801.6190
2024-03-24T01:16:31.205Z,1806.4950
2024-03-24T01:16:42.247Z,1805.2740
2024-03-24T01:16:53.324Z,1802.8361
2024-03-24T01:17:04.378Z,1804.0540
2024-03-24T01:17:15.433Z,1808.9430
2024-03-24T01:17:26.487Z,1808.9430
2024-03-24T01:17:37.520Z,1813.8590
2024-03-24T01:17:48.581Z,1808.9430
2024-03-24T01:17:59.650Z,1810.1689
2024-03-24T01:18:10.707Z,1813.8590
2024-03-24T01:18:21.762Z,1799.1910
2024-03-24T01:18:32.759Z,1801.6190
2024-03-24T01:18:43.800Z,1800.4050
2024-03-24T01:18:54.876Z,1806.4950
2024-03-24T01:19:05.905Z,1816.3270
2024-03-24T01:19:16.964Z,1815.0920
2024-03-24T01:19:30.046Z,1800.4050
2024-03-24T01:19:42.652Z,1799.1910
2024-03-24T01:19:53.710Z,1808.9430
2024-03-24T01:20:04.730Z,1808.9430
2024-03-24T01:20:15.750Z,1808.9430
2024-03-24T01:20:26.833Z,1807.7180
2024-03-24T01:20:37.883Z,1810.1689
2024-03-24T01:20:48.929Z,1805.2740
2024-03-24T01:20:59.950Z,1811.3979
2024-03-24T01:21:11.017Z,1807.7180
2024-03-24T01:21:22.047Z,1808.9430
2024-03-24T01:21:33.104Z,1794.3550
2024-03-24T01:21:44.205Z,1810.1689
2024-03-24T01:21:55.346Z,1801.6190
2024-03-24T01:22:06.397Z,1785.9530
2024-03-24T01:22:17.435Z,1804.0540
2024-03-24T01:22:28.463Z,1813.8590
2024-03-24T01:22:39.514Z,1804.0540
2024-03-24T01:22:50.560Z,1796.7700
2024-03-24T01:23:01.612Z,1794.3550
2024-03-24T01:23:12.651Z,1804.0540
2024-03-24T01:23:23.672Z,1806.4950
2024-03-24T01:23:34.719Z,1804.0540
2024-03-24T01:23:45.782Z,1807.7180
2024-03-24T01:23:56.835Z,1806.4950
2024-03-24T01:24:07.884Z,1805.2740
2024-03-24T01:24:18.926Z,1805.2740
2024-03-24T01:24:29.970Z,1799.1910
2024-03-24T01:24:40.976Z,1802.8361
2024-03-24T01:24:52.026Z,1793.1500
2024-03-24T01:25:03.049Z,1805.2740
2024-03-24T01:25:14.103Z,1799.1910
2024-03-24T01:25:25.147Z,1801.6190
2024-03-24T01:25:36.235Z,1805.2740
2024-03-24T01:25:47.273Z,1806.4950
2024-03-24T01:25:58.376Z,1801.6190
2024-03-24T01:26:09.410Z,1799.1910
2024-03-24T01:26:22.742Z,1799.1910
2024-03-24T01:26:34.168Z,1791.9460
2024-03-24T01:26:45.217Z,1800.4050
2024-03-24T01:26:56.243Z,1802.8361
2024-03-24T01:27:07.283Z,1777.6300
2024-03-24T01:27:18.309Z,1799.1910
2024-03-24T01:27:29.329Z,1808.9430
2024-03-24T01:27:40.389Z,1805.2740
2024-03-24T01:27:51.448Z,1799.1910
2024-03-24T01:28:02.478Z,1812.6270
2024-03-24T01:28:13.509Z,1801.6190
2024-03-24T01:28:24.558Z,1799.1910
2024-03-24T01:28:35.608Z,1799.1910
2024-03-24T01:28:46.624Z,1802.8361
2024-03-24T01:28:57.673Z,1784.7590
2024-03-24T01:29:08.735Z,1795.5620
2024-03-24T01:29:19.784Z,1799.1910
2024-03-24T01:29:30.835Z,1784.7590
2024-03-24T01:29:41.885Z,1796.7700
2024-03-24T01:29:52.954Z,1796.7700
2024-03-24T01:30:03.985Z,1783.5670
2024-03-24T01:30:15.038Z,1795.5620
2024-03-24T01:30:26.056Z,1787.1490
2024-03-24T01:30:37.083Z,1775.2660
2024-03-24T01:30:48.141Z,1796.7700
2024-03-24T01:30:59.224Z,1799.1910
2024-03-24T01:31:10.301Z,1801.6190
2024-03-24T01:31:21.321Z,1791.9460
2024-03-24T01:31:32.386Z,1778.8140
2024-03-24T01:31:43.435Z,1801.6190
2024-03-24T01:31:54.470Z,1800.4050
2024-03-24T01:32:05.517Z,1795.5620
2024-03-24T01:32:16.549Z,1799.1910
2024-03-24T01:32:27.560Z,1789.5439
2024-03-24T01:32:38.601Z,1790.7440
2024-03-24T01:32:49.628Z,1799.1910
2024-03-24T01:33:00.684Z,1800.4050
2024-03-24T01:33:11.739Z,1806.4950
2024-03-24T01:33:22.775Z,1796.7700
2024-03-24T01:33:33.830Z,1799.1910
2024-03-24T01:33:44.881Z,1801.6190
2024-03-24T01:33:55.895Z,1802.8361
2024-03-24T01:34:06.941Z,1801.6190
2024-03-24T01:34:17.993Z,1793.1500
2024-03-24T01:34:29.052Z,1796.7700
2024-03-24T01:34:40.103Z,1801.6190
2024-03-24T01:34:51.153Z,1799.1910
2024-03-24T01:35:02.180Z,1797.9800
2024-03-24T01:35:13.199Z,1796.7700
2024-03-24T01:35:24.255Z,1797.9800
2024-03-24T01:35:35.281Z,1793.1500
2024-03-24T01:35:46.356Z,1791.9460
2024-03-24T01:35:57.367Z,1789.5439
2024-03-24T01:36:08.423Z,1788.3459
2024-03-24T01:36:19.491Z,1790.7440
2024-03-24T01:36:30.523Z,1782.3760
2024-03-24T01:36:41.568Z,1794.3550
2024-03-24T01:36:52.622Z,1784.7590
2024-03-24T01:37:03.689Z,1790.7440
2024-03-24T01:37:14.729Z,1793.1500
2024-03-24T01:37:25.759Z,1797.9800
2024-03-24T01:37:36.803Z,1791.9460
2024-03-24T01:37:47.847Z,1793.1500
2024-03-24T01:37:58.897Z,1796.7700
2024-03-24T01:38:09.943Z,1777.6300
2024-03-24T01:38:20.976Z,1791.9460
2024-03-24T01:38:32.010Z,1794.3550
2024-03-24T01:38:43.061Z,1796.7700
2024-03-24T01:38:54.104Z,1782.3760
2024-03-24T01:39:05.159Z,1782.3760
2024-03-24T01:39:16.201Z,1781.1870
2024-03-24T01:39:27.270Z,1795.5620
2024-03-24T01:39:38.310Z,1784.7590
2024-03-24T01:39:49.350Z,1793.1500
2024-03-24T01:40:00.404Z,1789.5439
2024-03-24T01:40:11.470Z,1790.7440
2024-03-24T01:40:22.510Z,1791.9460
2024-03-24T01:40:33.550Z,1789.5439
2024-03-24T01:40:44.654Z,1787.1490
2024-03-24T01:40:55.726Z,1791.9460
2024-03-24T01:41:06.771Z,1782.3760
2024-03-24T01:41:17.815Z,1789.5439
2024-03-24T01:41:28.858Z,1799.1910
2024-03-24T01:41:39.891Z,1783.5670
2024-03-24T01:41:50.944Z,1781.1870
2024-03-24T01:42:01.984Z,1791.9460
2024-03-24T01:42:13.066Z,1791.9460
2024-03-24T01:42:24.090Z,1790.7440
2024-03-24T01:42:35.128Z,1782.3760
2024-03-24T01:42:46.166Z,1794.3550
2024-03-24T01:42:57.195Z,1789.5439
2024-03-24T01:43:08.236Z,1784.7590
2024-03-24T01:43:19.270Z,1780.0000
2024-03-24T01:43:30.318Z,1787.1490
2024-03-24T01:43:41.340Z,1780.0000
2024-03-24T01:43:52.383Z,1789.5439
2024-03-24T01:44:03.438Z,1787.1490
2024-03-24T01:44:14.505Z,1772.9080
2024-03-24T01:44:25.531Z,1787.1490
2024-03-24T01:44:36.570Z,1789.5439
2024-03-24T01:44:47.602Z,1771.7321
2024-03-24T01:44:58.630Z,1791.9460
2024-03-24T01:45:09.692Z,1780.0000
2024-03-24T01:45:20.735Z,1780.0000
2024-03-24T01:45:31.764Z,1780.0000
2024-03-24T01:45:42.790Z,1805.2740
2024-03-24T01:45:53.850Z,1771.7321
2024-03-24T01:46:04.917Z,1806.4950
2024-03-24T01:46:15.973Z,1787.1490
2024-03-24T01:46:27.012Z,1788.3459
2024-03-24T01:46:38.056Z,1783.5670
2024-03-24T01:46:49.110Z,1772.9080
2024-03-24T01:47:00.163Z,1787.1490
2024-03-24T01:47:11.183Z,1763.5400
2024-03-24T01:47:22.227Z,1777.6300
2024-03-24T01:47:33.286Z,1782.3760
2024-03-24T01:47:44.390Z,1783.5670
2024-03-24T01:47:55.430Z,1777.6300
2024-03-24T01:48:06.485Z,1777.6300
2024-03-24T01:48:17.520Z,1772.9080
2024-03-24T01:48:28.560Z,1774.0861
2024-03-24T01:48:39.600Z,1777.6300
2024-03-24T01:48:50.646Z,1770.5570
2024-03-24T01:49:01.693Z,1780.0000
2024-03-24T01:49:12.770Z,1783.5670
2024-03-24T01:49:23.784Z,1782.3760
2024-03-24T01:49:34.828Z,1776.4470
2024-03-24T01:49:45.847Z,1778.8140
2024-03-24T01:49:56.891Z,1782.3760
2024-03-24T01:50:07.945Z,1785.9530
2024-03-24T01:50:18.963Z,1780.0000
2024-03-24T01:50:29.991Z,1790.7440
2024-03-24T01:50:41.053Z,1778.8140
2024-03-24T01:50:52.080Z,1782.3760
2024-03-24T01:51:03.116Z,1772.9080
2024-03-24T01:51:14.184Z,1768.2120
2024-03-24T01:51:25.230Z,1776.4470
2024-03-24T01:51:36.250Z,1782.3760
2024-03-24T01:51:47.300Z,1770.5570
2024-03-24T01:51:58.343Z,1774.0861
2024-03-24T01:52:09.405Z,1772.9080
2024-03-24T01:52:20.407Z,1777.6300
2024-03-24T01:52:31.435Z,1775.2660
2024-03-24T01:52:42.471Z,1771.7321
2024-03-24T01:52:53.507Z,1774.0861
2024-03-24T01:53:04.562Z,1774.0861
2024-03-24T01:53:15.613Z,1777.6300
2024-03-24T01:53:26.639Z,1755.4240
2024-03-24T01:53:37.690Z,1780.0000
2024-03-24T01:53:48.718Z,1785.9530
2024-03-24T01:53:59.809Z,1761.2140
2024-03-24T01:54:10.794Z,1775.2660
2024-03-24T01:54:21.862Z,1775.2660
2024-03-24T01:54:32.911Z,1763.5400
2024-03-24T01:54:43.949Z,1762.3760
2024-03-24T01:54:55.001Z,1756.5790
2024-03-24T01:55:06.044Z,1777.6300
2024-03-24T01:55:17.103Z,1756.5790
2024-03-24T01:55:28.145Z,1772.9080
2024-03-24T01:55:39.205Z,1772.9080
2024-03-24T01:55:50.239Z,1769.3840
2024-03-24T01:56:01.273Z,1775.2660
2024-03-24T01:56:12.326Z,1781.1870
2024-03-24T01:56:23.441Z,1772.9080
2024-03-24T01:56:34.472Z,1761.2140
2024-03-24T01:56:45.540Z,1761.2140
2024-03-24T01:56:56.580Z,1772.9080
2024-03-24T01:57:07.624Z,1765.8730
2024-03-24T01:57:18.671Z,1767.0420
2024-03-24T01:57:29.831Z,1768.2120
2024-03-24T01:57:41.038Z,1780.0000
2024-03-24T01:57:52.103Z,1754.2710
2024-03-24T01:58:03.124Z,1771.7321
2024-03-24T01:58:14.207Z,1769.3840
2024-03-24T01:58:25.205Z,1770.5570
2024-03-24T01:58:36.267Z,1765.8730
2024-03-24T01:58:47.314Z,1776.4470
2024-03-24T01:58:58.381Z,1768.2120
2024-03-24T01:59:09.429Z,1770.5570
2024-03-24T01:59:20.434Z,1761.2140
2024-03-24T01:59:31.445Z,1770.5570
2024-03-24T01:59:42.486Z,1768.2120
2024-03-24T01:59:53.507Z,1756.5790
2024-03-24T02:00:04.564Z,1770.5570
2024-03-24T02:00:15.629Z,1763.5400
2024-03-24T02:00:26.669Z,1770.5570
2024-03-24T02:00:37.744Z,1762.3760
2024-03-24T02:00:48.746Z,1767.0420
2024-03-24T02:00:59.814Z,1767.0420
2024-03-24T02:01:10.856Z,1770.5570
2024-03-24T02:01:21.901Z,1758.8929
2024-03-24T02:01:32.974Z,1772.9080
2024-03-24T02:01:44.019Z,1768.2120
2024-03-24T02:01:55.049Z,1764.7061
2024-03-24T02:02:06.071Z,1767.0420
2024-03-24T02:02:17.120Z,1763.5400
2024-03-24T02:02:28.170Z,1765.8730
2024-03-24T02:02:39.226Z,1763.5400
2024-03-24T02:02:50.311Z,1755.4240
2024-03-24T02:03:01.351Z,1764.7061
2024-03-24T02:03:12.401Z,1765.8730
2024-03-24T02:03:23.434Z,1758.8929
2024-03-24T02:03:34.469Z,1765.8730
2024-03-24T02:03:45.527Z,1757.7350
2024-03-24T02:03:56.564Z,1769.3840
2024-03-24T02:04:07.615Z,1765.8730
2024-03-24T02:04:18.640Z,1768.2120
2024-03-24T02:04:29.770Z,1761.2140
2024-03-24T02:04:40.874Z,1754.2710
2024-03-24T02:04:51.921Z,1767.0420
2024-03-24T02:05:02.964Z,1757.7350
2024-03-24T02:05:14.014Z,1761.2140
2024-03-24T02:05:25.025Z,1760.0530
2024-03-24T02:05:36.098Z,1763.5400
2024-03-24T02:05:47.120Z,1751.9680
2024-03-24T02:05:58.174Z,1761.2140
2024-03-24T02:06:09.262Z,1751.9680